Chelmsford, MA (01824)

1:06 PM EDT on August 29, 2015 (GMT -0400)
Pine Hill | | Change Station
CLOSE
Current Station
Personal Weather Station
Location: Chelmsford, MA
Elevation: 289 ft
Nearby Weather Stations

Elev 289 ft 42.59 °N, 71.39 °W | Updated 2 minutes ago

Clear
Clear
84.7 °F
Feels Like 83 °F
N
2.0
Wind Variable Wind from NNW
Gusts 3.0 mph

Today
High -- | Low -- °F
--% Chance of Precip.
Yesterday
High -- | Low -- °F
Precip. -- in
6:06 AM 7:25 PM
Full, 100% visible
Pressure 30.18 in
Visibility 10.0 miles
Clouds Few 5000 ft
Heat Index 83 °F
Dew Point 55 °F
Humidity 36%
Rainfall Not available.
Snow Depth Not available.
UV 9 out of 12
Pollen 10.30 out of 12
Air Quality Not available.
Flu Activity Not available.
METAR KBED 291656Z 26005KT 10SM FEW050 26/12 A3014 RMK AO2 SLP219 T02610117
Pressure 30.18 in
Visibility 10.0 miles
Clouds Few 5000 ft
Heat Index 83 °F
Dew Point 55 °F
Humidity 36%
Rainfall Not available.
Snow Depth Not available.
UV 9 out of 12
Pollen 10.30 out of 12
Air Quality Not available.
Flu Activity Not available.
METAR KBED 291656Z 26005KT 10SM FEW050 26/12 A3014 RMK AO2 SLP219 T02610117

10-Day Weather Forecast

×

Almanac

Astronomy

Aug. 29, 2015 Rise Set
Actual Time
Civil Twilight
Nautical Twilight
Astronomical Twilight
Moon
Length of Visible Light
Length of Day
Tomorrow will be .
, % of the Moon is Illuminated

Today's Extremes

State Highs State Lows

Community

WunderPhotos

Upload Photos

1,850,724 photos uploaded!

WunderBlogs® & News

Nearby

Air Quality

  Air Quality AQ Index Pollutant
Not available.

Snow Depth

Station Depth Elevation

Earthquake Activity

City Distance Mag. Time & Date
Minimum magnitude displayed is 2.5.

Coastal Water Temperatures

Place Temperature

Stations

Nearby Weather Stations

Station Location Temp. Windchill Dew Point Humidity Wind Precip. Elev Updated Type